Parkdale, Oregon
Current Conditions -  °F | °C
As of 8:59 PM on Friday 19 Dec 2014 (Local Time) from K4S2 Reporting Station
Moderate Rain Moderate Rain  
Wind Chill: 39°   Ceiling: 4000
Heat Index: 39°   Visibility: 10mi
Dew Point: 39°   Wind: 3mph
Humidity: 100%   Direction: 220°SW
Pressure: 30.02"   Gusts: NA
Location:  45.3977°N, 121.59°W
Report Text: K4S2 200459Z AUTO 22003KT 10SM RA SCT018 BKN040 OVC047 04/04 A3002 RMK AO2 P0001 SLP182 T00400040
Loading
Personal Weather Stations






























Interactive Weather Map New forecast layout! Learn more

10-Day Weather Forecast

Advertisements
Track Severe Weather on mobile